createdAt,value
2019-03-15T00:01:40.393Z,205.17
2019-03-15T00:04:09.298Z,210.77
2019-03-15T00:06:38.150Z,213.40
2019-03-15T00:09:08.682Z,145.33
2019-03-15T00:11:37.614Z,154.37
2019-03-15T00:14:06.660Z,129.30
2019-03-15T00:16:35.538Z,93.33
2019-03-15T00:19:04.785Z,92.13
2019-03-15T00:21:33.639Z,90.33
2019-03-15T00:24:02.513Z,86.37
2019-03-15T00:26:31.461Z,88.50
2019-03-15T00:29:00.341Z,91.90
2019-03-15T00:31:29.199Z,119.60
2019-03-15T00:33:58.122Z,127.67
2019-03-15T00:36:26.964Z,135.00
2019-03-15T00:38:56.685Z,127.07
2019-03-15T00:41:25.606Z,124.37
2019-03-15T00:43:54.502Z,113.13
2019-03-15T00:46:23.357Z,105.30
2019-03-15T00:48:52.262Z,127.33
2019-03-15T00:51:21.137Z,134.00
2019-03-15T00:53:49.971Z,118.23
2019-03-15T00:56:18.887Z,102.77
2019-03-15T00:58:47.799Z,82.63
2019-03-15T01:01:16.677Z,84.60
2019-03-15T01:03:45.620Z,90.70
2019-03-15T01:06:14.485Z,88.03
2019-03-15T01:08:43.349Z,90.30
2019-03-15T01:11:12.243Z,85.83
2019-03-15T01:13:41.105Z,88.00
2019-03-15T01:16:09.953Z,100.20
2019-03-15T01:18:38.874Z,83.17
2019-03-15T01:21:07.747Z,79.67
2019-03-15T01:23:36.606Z,64.73
2019-03-15T01:26:05.556Z,61.57
2019-03-15T01:28:34.501Z,76.93
2019-03-15T01:31:03.373Z,70.90
2019-03-15T01:33:32.270Z,69.87
2019-03-15T01:36:01.107Z,67.13
2019-03-15T01:38:30.042Z,64.40
2019-03-15T01:40:58.942Z,67.50
2019-03-15T01:43:27.807Z,84.57
2019-03-15T01:45:56.700Z,83.10
2019-03-15T01:48:25.639Z,83.43
2019-03-15T01:50:54.511Z,63.37
2019-03-15T01:53:23.623Z,70.80
2019-03-15T01:55:52.775Z,73.23
2019-03-15T01:58:21.644Z,72.33
2019-03-15T02:03:19.454Z,97.70
2019-03-15T02:05:48.338Z,91.00
2019-03-15T02:08:17.180Z,74.87
2019-03-15T02:10:46.095Z,62.17
2019-03-15T02:13:14.996Z,59.30
2019-03-15T02:15:43.900Z,64.40
2019-03-15T02:18:12.841Z,66.83
2019-03-15T02:20:41.704Z,66.20
2019-03-15T02:23:10.570Z,62.60
2019-03-15T02:25:39.474Z,63.47
2019-03-15T02:28:08.333Z,57.90
2019-03-15T02:30:37.189Z,55.40
2019-03-15T02:33:06.472Z,44.33
2019-03-15T02:35:35.694Z,44.67
2019-03-15T02:38:04.564Z,42.20
2019-03-15T02:40:33.491Z,77.33
2019-03-15T02:43:02.329Z,69.40
2019-03-15T02:45:31.231Z,67.80
2019-03-15T02:48:00.147Z,60.30
2019-03-15T02:50:29.380Z,55.87
2019-03-15T02:52:58.504Z,62.53
2019-03-15T02:55:27.489Z,76.17
2019-03-15T02:57:56.298Z,86.70
2019-03-15T03:00:25.171Z,93.63
2019-03-15T03:02:54.369Z,96.93
2019-03-15T03:05:23.279Z,97.27
2019-03-15T03:07:52.134Z,86.97
2019-03-15T03:10:21.098Z,64.17
2019-03-15T03:12:49.984Z,51.67
2019-03-15T03:15:18.823Z,48.83
2019-03-15T03:17:47.865Z,42.10
2019-03-15T03:20:16.725Z,43.20
2019-03-15T03:22:45.577Z,45.53
2019-03-15T03:25:14.467Z,41.37
2019-03-15T03:27:43.311Z,42.93
2019-03-15T03:30:13.209Z,44.23
2019-03-15T03:32:44.355Z,45.37
2019-03-15T03:35:13.265Z,44.63
2019-03-15T03:37:42.166Z,45.77
2019-03-15T03:40:11.212Z,45.27
2019-03-15T03:42:40.111Z,73.77
2019-03-15T03:45:10.181Z,77.17
2019-03-15T03:47:39.086Z,50.47
2019-03-15T03:50:09.838Z,43.90
2019-03-15T03:52:41.455Z,43.97
2019-03-15T03:55:09.408Z,43.37
2019-03-15T03:57:38.224Z,45.60
2019-03-15T04:00:15.347Z,48.13
2019-03-15T04:02:44.303Z,49.93
2019-03-15T04:05:13.235Z,49.70
2019-03-15T04:07:42.247Z,44.27
2019-03-15T04:10:12.114Z,41.90
2019-03-15T04:12:40.981Z,42.70
2019-03-15T04:15:11.259Z,45.63
2019-03-15T04:17:40.123Z,45.03
2019-03-15T04:20:13.328Z,46.17
2019-03-15T04:22:42.226Z,53.60
2019-03-15T04:25:11.362Z,53.73
2019-03-15T04:27:40.214Z,62.17
2019-03-15T04:30:12.203Z,63.07
2019-03-15T04:32:41.076Z,53.70
2019-03-15T04:35:10.030Z,55.83
2019-03-15T04:37:38.938Z,71.20
2019-03-15T04:40:10.370Z,70.33
2019-03-15T04:42:39.234Z,63.03
2019-03-15T04:45:09.252Z,64.80
2019-03-15T04:47:38.119Z,60.17
2019-03-15T04:50:07.773Z,40.00
2019-03-15T04:52:36.805Z,42.23
2019-03-15T04:55:06.871Z,40.63
2019-03-15T04:57:35.718Z,43.63
2019-03-15T05:00:06.907Z,52.17
2019-03-15T05:02:35.774Z,52.73
2019-03-15T05:05:06.136Z,46.63
2019-03-15T05:07:35.070Z,46.83
2019-03-15T05:10:08.830Z,46.23
2019-03-15T05:12:37.704Z,48.97
2019-03-15T05:15:09.109Z,50.70
2019-03-15T05:17:37.982Z,52.23
2019-03-15T05:20:09.035Z,53.47
2019-03-15T05:22:37.975Z,55.53
2019-03-15T05:25:07.948Z,59.80
2019-03-15T05:27:36.801Z,55.63
2019-03-15T05:30:08.380Z,47.67
2019-03-15T05:32:37.285Z,76.03
2019-03-15T05:35:06.766Z,59.10
2019-03-15T05:37:35.689Z,54.40
2019-03-15T05:40:06.525Z,49.20
2019-03-15T05:42:35.403Z,43.67
2019-03-15T05:45:06.044Z,48.57
2019-03-15T05:47:34.909Z,58.80
2019-03-15T05:50:05.173Z,59.23
2019-03-15T05:52:34.094Z,62.23
2019-03-15T05:55:03.286Z,65.53
2019-03-15T05:57:32.157Z,67.93
2019-03-15T06:00:01.055Z,70.87
2019-03-15T06:02:29.913Z,72.47
2019-03-15T06:04:58.792Z,77.30
2019-03-15T06:07:27.731Z,74.37
2019-03-15T06:09:56.564Z,71.23
2019-03-15T06:12:25.432Z,70.03
2019-03-15T06:14:54.374Z,65.37
2019-03-15T06:17:23.241Z,55.33
2019-03-15T06:19:52.136Z,55.87
2019-03-15T06:22:21.041Z,60.53
2019-03-15T06:24:49.921Z,53.90
2019-03-15T06:27:18.801Z,50.67
2019-03-15T06:29:47.742Z,51.13
2019-03-15T06:32:16.631Z,70.50
2019-03-15T06:34:45.435Z,77.30
2019-03-15T06:37:14.383Z,109.33
2019-03-15T06:39:43.251Z,155.37
2019-03-15T06:42:12.124Z,116.47
2019-03-15T06:44:41.051Z,102.37
2019-03-15T06:47:09.910Z,75.60
2019-03-15T06:49:38.777Z,66.40
2019-03-15T06:52:07.692Z,92.07
2019-03-15T06:54:36.558Z,67.23
2019-03-15T06:57:06.537Z,55.27
2019-03-15T06:59:35.630Z,51.47
2019-03-15T07:02:04.483Z,47.53
2019-03-15T07:04:33.342Z,46.67
2019-03-15T07:07:02.237Z,45.23
2019-03-15T07:09:31.114Z,48.40
2019-03-15T07:12:09.409Z,50.07
2019-03-15T07:14:30.550Z,45.20
2019-03-15T07:16:59.443Z,46.40
2019-03-15T07:19:30.485Z,42.30
2019-03-15T07:21:58.850Z,37.47
2019-03-15T07:24:27.701Z,38.20
2019-03-15T07:26:56.570Z,38.27
2019-03-15T07:29:25.508Z,42.00
2019-03-15T07:31:54.393Z,46.37
2019-03-15T07:34:23.272Z,47.70
2019-03-15T07:36:55.189Z,51.10
2019-03-15T07:39:22.733Z,59.33
2019-03-15T07:41:51.571Z,65.43
2019-03-15T07:44:20.494Z,64.77
2019-03-15T07:46:50.985Z,63.07
2019-03-15T07:49:19.982Z,63.47
2019-03-15T07:51:48.943Z,66.00
2019-03-15T07:54:17.826Z,78.57
2019-03-15T07:56:46.650Z,74.57
2019-03-15T07:59:15.674Z,73.17
2019-03-15T08:01:44.532Z,84.77
2019-03-15T08:04:17.193Z,69.60
2019-03-15T08:06:44.001Z,75.40
2019-03-15T08:09:12.995Z,68.93
2019-03-15T08:11:41.863Z,58.77
2019-03-15T08:14:10.755Z,48.63
2019-03-15T08:16:39.657Z,54.10
2019-03-15T08:19:08.528Z,51.63
2019-03-15T08:21:38.108Z,47.67
2019-03-15T08:24:06.982Z,38.63
2019-03-15T08:26:35.883Z,34.93
2019-03-15T08:29:04.803Z,28.87
2019-03-15T08:31:33.650Z,24.40
2019-03-15T08:34:02.504Z,23.23
2019-03-15T08:36:31.405Z,19.32
2019-03-15T08:39:00.407Z,14.33
2019-03-15T08:41:29.232Z,14.85
2019-03-15T08:43:58.202Z,11.80
2019-03-15T08:46:27.059Z,11.43
2019-03-15T08:48:55.918Z,8.80
2019-03-15T08:51:24.824Z,8.83
2019-03-15T08:53:53.663Z,9.60
2019-03-15T08:56:22.530Z,9.55
2019-03-15T08:58:51.453Z,12.23
2019-03-15T09:01:23.537Z,9.20
2019-03-15T09:03:50.811Z,6.57
2019-03-15T09:06:19.738Z,6.33
2019-03-15T09:08:48.593Z,8.77
2019-03-15T09:11:17.448Z,7.37
2019-03-15T09:13:49.012Z,7.20
2019-03-15T09:16:16.849Z,6.37
2019-03-15T09:18:45.675Z,7.13
2019-03-15T09:21:14.636Z,6.97
2019-03-15T09:23:43.460Z,6.50
2019-03-15T09:26:12.336Z,7.17
2019-03-15T09:28:41.249Z,6.53
2019-03-15T09:31:10.090Z,6.00
2019-03-15T09:33:38.965Z,5.30
2019-03-15T09:36:07.853Z,4.57
2019-03-15T09:38:36.681Z,4.60
2019-03-15T09:41:05.506Z,4.40
2019-03-15T09:43:34.390Z,5.40
2019-03-15T09:46:03.244Z,5.23
2019-03-15T09:48:32.083Z,5.40
2019-03-15T09:51:01.009Z,4.67
2019-03-15T09:53:29.845Z,6.20
2019-03-15T09:55:58.722Z,5.03
2019-03-15T09:58:27.648Z,4.63
2019-03-15T10:00:57.086Z,4.23
2019-03-15T10:03:26.560Z,4.00
2019-03-15T10:05:55.492Z,3.70
2019-03-15T10:08:24.350Z,5.20
2019-03-15T10:10:53.197Z,3.80
2019-03-15T10:13:22.129Z,3.97
2019-03-15T10:15:51.133Z,4.83
2019-03-15T10:18:20.039Z,5.30
2019-03-15T10:20:48.962Z,4.40
2019-03-15T10:23:17.833Z,4.60
2019-03-15T10:25:51.002Z,4.17
2019-03-15T10:28:17.444Z,4.13
2019-03-15T10:30:46.294Z,4.17
2019-03-15T10:33:15.177Z,5.13
2019-03-15T10:35:44.063Z,4.60
2019-03-15T10:38:12.898Z,4.50
2019-03-15T10:40:41.791Z,4.13
2019-03-15T10:43:10.683Z,4.97
2019-03-15T10:45:39.550Z,4.73
2019-03-15T10:48:08.404Z,4.20
2019-03-15T10:50:38.283Z,4.30
2019-03-15T10:53:07.114Z,4.47
2019-03-15T10:55:35.947Z,5.20
2019-03-15T10:58:04.891Z,4.93
2019-03-15T11:00:33.772Z,4.90
2019-03-15T11:03:02.613Z,5.80
2019-03-15T11:05:31.518Z,5.13
2019-03-15T11:08:00.394Z,4.97
2019-03-15T11:10:29.241Z,5.63
2019-03-15T11:12:58.100Z,4.40
2019-03-15T11:15:26.976Z,5.47
2019-03-15T11:17:55.899Z,4.67
2019-03-15T11:20:24.836Z,4.33
2019-03-15T11:22:53.697Z,4.60
2019-03-15T11:25:22.575Z,4.40
2019-03-15T11:27:51.497Z,3.83
2019-03-15T11:30:20.372Z,4.23
2019-03-15T11:32:49.208Z,4.00
2019-03-15T11:35:21.119Z,3.80
2019-03-15T11:37:48.613Z,4.00
2019-03-15T11:40:19.327Z,4.20
2019-03-15T11:42:48.719Z,3.73
2019-03-15T11:45:17.672Z,3.60
2019-03-15T11:48:02.657Z,4.07
2019-03-15T11:50:21.240Z,3.80
2019-03-15T11:52:50.057Z,4.80
2019-03-15T11:55:19.391Z,4.63
2019-03-15T11:57:48.337Z,5.20
2019-03-15T12:00:18.060Z,4.03
2019-03-15T12:02:47.797Z,4.00
2019-03-15T12:05:16.804Z,3.33
2019-03-15T12:07:45.682Z,4.87
2019-03-15T12:10:18.035Z,7.57
2019-03-15T12:12:46.988Z,7.10
2019-03-15T12:15:17.233Z,5.20
2019-03-15T12:17:46.080Z,4.33
2019-03-15T12:20:15.045Z,6.00
2019-03-15T12:22:43.930Z,4.40
2019-03-15T12:25:13.082Z,3.93
2019-03-15T12:27:42.025Z,3.53
2019-03-15T12:30:15.831Z,3.63
2019-03-15T12:32:44.642Z,3.90
2019-03-15T12:35:14.343Z,4.20
2019-03-15T12:37:43.214Z,3.33
2019-03-15T12:40:14.092Z,4.00
2019-03-15T12:42:43.013Z,3.70
2019-03-15T12:45:12.788Z,4.00
2019-03-15T12:47:41.666Z,9.03
2019-03-15T12:50:11.898Z,20.73
2019-03-15T12:52:47.726Z,8.93
2019-03-15T12:55:12.493Z,4.97
2019-03-15T12:57:41.404Z,5.70
2019-03-15T13:00:16.091Z,5.63
2019-03-15T13:02:45.029Z,5.80
2019-03-15T13:05:14.127Z,4.77
2019-03-15T13:07:43.013Z,5.43
2019-03-15T13:10:22.885Z,7.60
2019-03-15T13:12:51.763Z,5.87
2019-03-15T13:15:20.626Z,6.27
2019-03-15T13:17:49.569Z,5.50
2019-03-15T13:20:18.793Z,7.53
2019-03-15T13:22:47.630Z,13.57
2019-03-15T13:25:16.528Z,5.60
2019-03-15T13:27:45.423Z,5.20
2019-03-15T13:30:15.243Z,4.63
2019-03-15T13:32:45.207Z,4.40
2019-03-15T13:35:14.352Z,4.03
2019-03-15T13:37:43.515Z,4.70
2019-03-15T13:40:14.834Z,4.33
2019-03-15T13:42:43.664Z,4.87
2019-03-15T13:45:13.520Z,6.83
2019-03-15T13:47:42.451Z,5.63
2019-03-15T13:50:21.341Z,5.57
2019-03-15T13:52:50.279Z,4.70
2019-03-15T13:55:19.161Z,5.20
2019-03-15T13:57:47.993Z,3.43
2019-03-15T14:00:18.126Z,5.27
2019-03-15T14:02:46.988Z,7.47
2019-03-15T14:05:15.851Z,6.10
2019-03-15T14:07:44.791Z,6.50
2019-03-15T14:10:17.474Z,8.57
2019-03-15T14:12:46.519Z,5.53
2019-03-15T14:15:19.348Z,5.87
2019-03-15T14:17:48.189Z,4.53
2019-03-15T14:20:17.155Z,5.03
2019-03-15T14:22:46.060Z,3.37
2019-03-15T14:25:20.369Z,4.43
2019-03-15T14:27:49.224Z,4.60
2019-03-15T14:30:18.121Z,4.37
2019-03-15T14:32:46.968Z,4.10
2019-03-15T14:35:15.894Z,3.50
2019-03-15T14:37:44.949Z,3.40
2019-03-15T14:40:13.877Z,3.77
2019-03-15T14:42:42.733Z,4.20
2019-03-15T14:45:13.267Z,4.00
2019-03-15T14:47:42.088Z,4.20
2019-03-15T14:50:12.375Z,4.37
2019-03-15T14:52:41.215Z,3.83
2019-03-15T14:55:12.005Z,10.10
2019-03-15T14:57:51.206Z,24.70
2019-03-15T15:00:16.100Z,5.43
2019-03-15T15:02:44.947Z,3.90
2019-03-15T15:05:13.911Z,4.97
2019-03-15T15:07:42.834Z,5.77
2019-03-15T15:10:13.993Z,4.77
2019-03-15T15:12:42.861Z,5.90
2019-03-15T15:15:15.896Z,6.67
2019-03-15T15:17:44.721Z,4.73
2019-03-15T15:20:13.862Z,9.43
2019-03-15T15:22:42.895Z,3.90
2019-03-15T15:25:12.933Z,4.63
2019-03-15T15:27:41.770Z,3.87
2019-03-15T15:30:13.933Z,4.40
2019-03-15T15:32:42.795Z,6.50
2019-03-15T15:35:12.573Z,5.40
2019-03-15T15:37:41.447Z,5.73
2019-03-15T15:40:15.268Z,3.77
2019-03-15T15:42:44.195Z,5.03
2019-03-15T15:45:13.479Z,4.10
2019-03-15T15:47:42.301Z,4.70
2019-03-15T15:50:12.596Z,4.93
2019-03-15T15:52:41.532Z,5.13
2019-03-15T15:55:12.351Z,4.90
2019-03-15T15:57:41.254Z,5.53
2019-03-15T16:00:12.462Z,5.10
2019-03-15T16:02:41.305Z,6.07
2019-03-15T16:05:10.439Z,5.90
2019-03-15T16:07:39.303Z,10.53
2019-03-15T16:10:10.965Z,6.47
2019-03-15T16:12:40.880Z,6.83
2019-03-15T16:15:12.170Z,8.07
2019-03-15T16:17:40.977Z,9.00
2019-03-15T16:20:11.114Z,9.03
2019-03-15T16:22:39.967Z,10.00
2019-03-15T16:25:16.265Z,10.00
2019-03-15T16:27:45.134Z,11.23
2019-03-15T16:30:18.471Z,11.60
2019-03-15T16:32:48.203Z,67.10
2019-03-15T16:35:17.047Z,74.13
2019-03-15T16:37:45.934Z,46.93
2019-03-15T16:40:16.060Z,25.70
2019-03-15T16:42:45.035Z,24.00
2019-03-15T16:45:19.437Z,25.13
2019-03-15T16:47:48.360Z,26.03
2019-03-15T16:50:17.208Z,11.23
2019-03-15T16:52:46.070Z,42.50
2019-03-15T16:55:14.950Z,11.50
2019-03-15T16:57:43.822Z,7.97
2019-03-15T17:00:14.100Z,12.97
2019-03-15T17:02:43.331Z,18.73
2019-03-15T17:05:13.177Z,18.27
2019-03-15T17:07:42.360Z,20.53
2019-03-15T17:10:17.050Z,30.43
2019-03-15T17:12:45.998Z,55.80
2019-03-15T17:15:17.640Z,83.43
2019-03-15T17:17:46.570Z,109.60
2019-03-15T17:20:15.614Z,134.70
2019-03-15T17:22:44.463Z,134.57
2019-03-15T17:25:13.516Z,143.77
2019-03-15T17:27:42.408Z,149.90
2019-03-15T17:30:15.548Z,153.60
2019-03-15T17:32:44.422Z,159.33
2019-03-15T17:35:14.701Z,155.70
2019-03-15T17:37:43.593Z,219.80
2019-03-15T17:40:14.790Z,274.03
2019-03-15T17:42:43.647Z,250.83
2019-03-15T17:45:12.586Z,221.53
2019-03-15T17:47:41.556Z,332.17
2019-03-15T17:50:18.341Z,262.67
2019-03-15T17:52:47.420Z,208.10
2019-03-15T17:55:17.084Z,198.73
2019-03-15T17:57:46.322Z,222.50
2019-03-15T18:00:27.952Z,247.60
2019-03-15T18:02:56.788Z,272.83
2019-03-15T18:05:25.662Z,213.03
2019-03-15T18:07:54.599Z,207.03
2019-03-15T18:10:23.463Z,195.83
2019-03-15T18:12:52.329Z,216.13
2019-03-15T18:15:21.262Z,194.07
2019-03-15T18:17:50.127Z,163.23
2019-03-15T18:20:18.986Z,108.30
2019-03-15T18:22:47.903Z,102.57
2019-03-15T18:25:16.977Z,131.30
2019-03-15T18:27:46.039Z,155.23
2019-03-15T18:30:16.356Z,167.40
2019-03-15T18:32:45.212Z,183.17
2019-03-15T18:35:14.807Z,165.23
2019-03-15T18:37:43.819Z,157.13
2019-03-15T18:40:17.077Z,159.83
2019-03-15T18:42:46.060Z,163.57
2019-03-15T18:45:16.290Z,160.87
2019-03-15T18:47:45.151Z,161.83
2019-03-15T18:50:19.697Z,148.17
2019-03-15T18:52:48.562Z,130.33
2019-03-15T18:55:17.458Z,141.70
2019-03-15T18:57:46.378Z,134.97
2019-03-15T19:00:22.120Z,140.27
2019-03-15T19:02:51.278Z,139.30
2019-03-15T19:05:20.158Z,155.13
2019-03-15T19:07:49.009Z,155.40
2019-03-15T19:10:18.126Z,145.07
2019-03-15T19:12:47.042Z,126.67
2019-03-15T19:15:20.052Z,131.20
2019-03-15T19:17:49.833Z,123.03
2019-03-15T19:20:18.851Z,127.20
2019-03-15T19:22:47.695Z,126.83
2019-03-15T19:25:16.923Z,128.50
2019-03-15T19:27:45.777Z,142.60
2019-03-15T19:30:20.589Z,176.70
2019-03-15T19:32:49.493Z,163.93
2019-03-15T19:35:18.390Z,144.20
2019-03-15T19:37:47.463Z,138.43
2019-03-15T19:40:18.465Z,104.40
2019-03-15T19:42:47.381Z,98.67
2019-03-15T19:45:17.114Z,75.87
2019-03-15T19:47:45.978Z,74.00
2019-03-15T19:50:22.289Z,69.83
2019-03-15T19:52:51.151Z,78.00
2019-03-15T19:55:20.015Z,70.17
2019-03-15T19:57:48.912Z,64.80
2019-03-15T20:00:22.118Z,59.00
2019-03-15T20:02:51.027Z,53.00
2019-03-15T20:05:20.106Z,64.00
2019-03-15T20:07:49.140Z,65.97
2019-03-15T20:10:18.365Z,69.53
2019-03-15T20:12:47.526Z,70.50
2019-03-15T20:15:17.007Z,59.10
2019-03-15T20:17:45.985Z,73.37
2019-03-15T20:20:15.909Z,99.70
2019-03-15T20:22:44.734Z,111.83
2019-03-15T20:25:15.766Z,109.93
2019-03-15T20:27:44.968Z,129.20
2019-03-15T20:30:22.034Z,125.53
2019-03-15T20:32:49.029Z,115.80
2019-03-15T20:35:17.898Z,103.67
2019-03-15T20:37:46.832Z,101.43
2019-03-15T20:40:16.012Z,90.43
2019-03-15T20:42:44.878Z,91.07
2019-03-15T20:45:21.922Z,84.60
2019-03-15T20:47:50.771Z,93.27
2019-03-15T20:50:19.629Z,86.80
2019-03-15T20:52:48.552Z,83.90
2019-03-15T20:55:17.468Z,87.40
2019-03-15T20:57:46.321Z,82.73
2019-03-15T21:00:20.225Z,74.97
2019-03-15T21:02:50.674Z,91.40
2019-03-15T21:05:19.564Z,91.77
2019-03-15T21:07:48.624Z,96.27
2019-03-15T21:10:18.291Z,102.70
2019-03-15T21:12:47.174Z,153.60
2019-03-15T21:15:16.577Z,217.53
2019-03-15T21:17:45.415Z,184.83
2019-03-15T21:20:22.944Z,192.70
2019-03-15T21:22:52.750Z,214.93
2019-03-15T21:25:21.706Z,168.00
2019-03-15T21:27:54.112Z,129.33
2019-03-15T21:30:25.901Z,108.00
2019-03-15T21:32:55.554Z,108.50
2019-03-15T21:35:24.406Z,150.67
2019-03-15T21:37:53.269Z,145.00
2019-03-15T21:40:22.770Z,125.50
2019-03-15T21:42:51.662Z,124.13
2019-03-15T21:45:20.518Z,124.87
2019-03-15T21:47:49.465Z,100.07
2019-03-15T21:50:19.815Z,99.37
2019-03-15T21:52:48.657Z,152.20
2019-03-15T21:55:17.545Z,147.37
2019-03-15T21:57:46.402Z,154.63
2019-03-15T22:00:17.248Z,161.80
2019-03-15T22:02:46.134Z,118.03
2019-03-15T22:05:15.001Z,107.77
2019-03-15T22:07:43.854Z,98.43
2019-03-15T22:10:14.665Z,107.30
2019-03-15T22:12:43.647Z,103.00
2019-03-15T22:15:13.606Z,116.30
2019-03-15T22:17:42.695Z,115.23
2019-03-15T22:20:16.236Z,113.27
2019-03-15T22:22:45.052Z,107.27
2019-03-15T22:25:14.036Z,110.23
2019-03-15T22:27:42.855Z,105.13
2019-03-15T22:30:13.371Z,107.40
2019-03-15T22:32:42.299Z,109.80
2019-03-15T22:35:11.553Z,103.83
2019-03-15T22:37:40.401Z,96.67
2019-03-15T22:40:11.531Z,86.60
2019-03-15T22:42:40.374Z,73.57
2019-03-15T22:45:14.437Z,70.53
2019-03-15T22:47:43.387Z,58.50
2019-03-15T22:50:13.548Z,56.63
2019-03-15T22:52:42.405Z,59.10
2019-03-15T22:55:11.716Z,66.23
2019-03-15T22:57:41.002Z,70.87
2019-03-15T23:00:18.038Z,69.97
2019-03-15T23:02:46.920Z,73.37
2019-03-15T23:05:15.772Z,79.40
2019-03-15T23:07:44.731Z,80.30
2019-03-15T23:10:13.702Z,90.47
2019-03-15T23:12:42.565Z,121.77
2019-03-15T23:15:13.216Z,175.60
2019-03-15T23:17:42.064Z,193.07
2019-03-15T23:20:13.314Z,222.53
2019-03-15T23:22:42.204Z,133.20
2019-03-15T23:25:11.042Z,99.63
2019-03-15T23:27:40.791Z,86.60
2019-03-15T23:30:14.582Z,76.90
2019-03-15T23:32:43.457Z,67.37
2019-03-15T23:35:12.309Z,63.23
2019-03-15T23:37:41.285Z,66.20
2019-03-15T23:40:11.995Z,65.17
2019-03-15T23:42:40.821Z,65.23
2019-03-15T23:45:10.618Z,59.57
2019-03-15T23:47:39.482Z,54.47
2019-03-15T23:50:12.902Z,58.20
2019-03-15T23:52:41.850Z,58.27
2019-03-15T23:55:10.908Z,48.00
2019-03-15T23:57:39.808Z,53.87
